Ely, Nevada Weather observations

Data are for observation ending at time listed.
 Day   Time    Ave.   Ave.  Ave.  Vector   Max.   Stn.    Total    Solar   Ave.  
  of    of     Air    Rel.  Wind   Wind    Wind   Baro.  Precip.   Rad.    Soil  
Year   Day     Temp.  Hum.  Speed  Dir.    Gust   Pres.                    Temp. 
2016   (PST)    F      %     mph   deg.    mph     mb.     in.     W/m2     F   
------------------------------------------------------------------------------
 337   21:30   14.2    77    0.9   117      2.1   815.7    0.00       0    29.9
 337   21:40   13.7    76    3.7   129      7.6   815.5    0.00       0    29.9
 337   21:50   10.9    78    7.4   141      8.8   815.4    0.00       0    29.8
 337   22:00    9.7    81    6.9   137      8.7   815.4    0.00       0    29.8
 337   22:10   10.3    81    7.3   143      9.3   815.4    0.00       0    29.8
 337   22:20   10.0    80    6.7   134      8.7   815.5    0.00       0    29.7
 337   22:30    9.3    81    7.2   130      9.6   815.3    0.00       0    29.7
 337   22:40    9.9    79    7.3   144      9.1   815.5    0.00       0    29.7
 337   22:50    8.4    80    8.5   148     10.7   815.2    0.00       0    29.6
 337   23:00    8.3    80    9.4   144     12.1   815.2    0.00       0    29.5
 337   23:10    8.2    79    9.8   141     12.9   815.3    0.00       0    29.5
 337   23:20    8.3    78    9.3   140     12.0   815.2    0.00       0    29.4
 337   23:30    8.1    78   10.1   145     13.9   815.3    0.00       0    29.3
 337   23:40    7.9    78   10.0   140     13.2   815.6    0.00       0    29.2
 337   23:50    7.4    79   10.7   139     14.2   815.6    0.00       0    29.2
 338    0:00    7.4    80   10.1   140     12.6   815.6    0.00       0    29.1
 338    0:10    7.4    80   11.2   143     13.2   815.5    0.00       0    29.0
 338    0:20    7.3    80   10.3   141     12.7   815.5    0.00       0    28.9
 338    0:30    6.6    79    7.7   145     10.2   815.7    0.00       0    28.8
 338    0:40    6.1    79    7.5   144      9.2   815.6    0.00       0    28.7
 338    0:50    5.8    80    5.8   142      8.0   815.5    0.00       0    28.6
 338    1:00    5.4    79    7.1   149      9.5   815.5    0.00       0    28.5
 338    1:10    5.4    79    6.4   147      8.4   815.7    0.00       0    28.4
 338    1:20    4.8    79    8.3   145     10.2   815.8    0.00       0    28.3
 338    1:30    5.1    80    9.0   148     11.8   815.7    0.00       0    28.2
 338    1:40    5.5    79    9.4   150     12.9   815.8    0.00       0    28.1
 338    1:50    5.6    80    8.1   152     12.8   816.0    0.00       0    28.0
 338    2:00    5.0    80    9.8   144     12.6   815.9    0.00       0    27.9
 338    2:10    4.9    80   10.9   145     13.2   815.5    0.00       0    27.8
 338    2:20    5.4    81   12.3   144     16.4   815.3    0.00       0    27.7
 338    2:30    5.8    80   12.9   143     16.6   815.2    0.00       0    27.6
 338    2:40    6.2    80   10.6   152     14.3   815.2    0.00       0    27.4
 338    2:50    5.9    79    8.4   163     12.6   815.6    0.00       0    27.3
 338    3:00    5.5    79    8.8   158     13.1   815.9    0.00       0    27.2
 338    3:10    5.4    80   11.7   146     15.0   815.7    0.00       0    27.1
 338    3:20    5.2    79   10.1   140     12.9   815.6    0.00       0    27.0
 338    3:30    5.4    80   10.6   147     14.2   815.4    0.00       0    26.9
 338    3:40    5.8    79    9.8   143     13.2   815.4    0.00       0    26.8
 338    3:50    5.4    79    9.1   141     11.9   815.4    0.00       0    26.7
 338    4:00    5.3    80   11.4   135     14.4   815.2    0.00       0    26.6
 338    4:10    5.4    79   12.1   133     15.9   815.1    0.00       0    26.6
 338    4:20    5.5    79   12.0   139     16.1   815.0    0.00       0    26.5
 338    4:30    5.8    80   12.4   135     16.4   814.9    0.00       0    26.4
 338    4:40    6.1    79   11.8   141     15.6   814.9    0.00       0    26.3
 338    4:50    4.8    79   11.6   146     14.6   814.8    0.00       0    26.2
 338    5:00    4.5    81   13.2   143     17.7   814.7    0.00       0    26.1
 338    5:10    5.9    80   12.4   142     15.9   814.9    0.00       0    26.0
 338    5:20    5.7    80   10.1   139     12.6   814.9    0.00       0    25.9
 338    5:30    4.3    80    8.9   139     11.2   815.1    0.00       0    25.8
 338    5:40    4.7    81    9.3   139     11.5   815.3    0.00       0    25.8
 338    5:50    5.7    81    9.6   138     12.1   815.2    0.00       0    25.7
 338    6:00    6.0    80   11.3   144     15.1   815.1    0.00       0    25.6
 338    6:10    5.2    79   11.8   148     15.9   815.0    0.00       0    25.6
 338    6:20    4.0    79   13.5   140     17.1   814.9    0.00       0    25.5
 338    6:30    3.7    80   13.4   141     16.4   815.0    0.00       0    25.4
 338    6:40    4.4    80   13.3   141     17.2   815.0    0.00       6    25.3
 338    6:50    5.0    79   10.5   152     15.0   815.1    0.00      13    25.2
 338    7:00    4.8    79   10.2   152     13.6   815.1    0.00      29    25.1
 338    7:10    5.0    79    9.9   150     13.0   815.3    0.00      31    25.1
 338    7:20    5.6    80    9.9   146     13.2   815.5    0.00      29    25.0
 338    7:30    6.3    79   11.9   147     14.7   815.5    0.00      36    25.0
 338    7:40    7.4    77   12.3   146     14.7   815.4    0.00     136    24.9
 338    7:50    8.6    76   11.4   152     15.6   815.4    0.00     224    24.9
 338    8:00   10.0    75   11.8   155     15.0   815.4    0.00     237    24.8
 338    8:10   11.5    74   10.5   149     13.7   815.5    0.00     251    24.8
 338    8:20   13.7    72    9.7   146     12.3   815.6    0.00     263    24.8
 338    8:30   16.2    68    8.8   148     11.9   815.5    0.00     295    24.8
 338    8:40   17.7    66    7.9   153     10.2   815.6    0.00     316    24.9
 338    8:50   18.7    66    8.3   147     11.1   815.5    0.00     280    25.1
 338    9:00   20.0    63    7.7   146     10.4   815.6    0.00     337    25.2
 338    9:10   21.8    58    7.4   148      9.4   815.5    0.00     409    25.4
 338    9:20   23.4    56    7.0   152      8.7   815.3    0.00     403    25.5
 338    9:30   24.3    56    5.3   162      7.6   815.5    0.00     269    25.7
 338    9:40   24.5    55    5.8   155      7.5   815.5    0.00     393    25.9
 338    9:50   25.7    52    4.2   158      6.0   815.6    0.00     324    26.1
 338   10:00   27.7    45    3.2   148      4.6   815.6    0.00     516    26.3
 338   10:10   29.8    38    1.8   110      3.7   815.6    0.00     523    26.5
 338   10:20   31.8    33    0.4   115      2.7   815.5    0.00     556    26.7
 338   10:30   33.7    30    0.1    88      1.5   815.4    0.00     407    26.9
 338   10:40   33.9    30    0.5   308      2.5   815.3    0.00     509    27.1
 338   10:50   34.2    30    0.6   350      2.2   815.2    0.00     590    27.4
 338   11:00   33.4    31    2.8   323      5.7   815.3    0.00     485    27.5
 338   11:10   33.0    31    3.1   338      5.6   815.1    0.00     491    27.7
 338   11:20   34.5    30    2.7   334      6.0   815.0    0.00     580    27.9
 338   11:30   35.2    28    5.0   334      7.8   814.9    0.00     520    28.0
 338   11:40   36.0    29    6.3   336     11.0   814.8    0.00     588    28.2
 338   11:50   36.8    30    8.1   338     11.1   814.8    0.00     564    28.4
 338   12:00   37.2    31    8.5   336     12.3   814.6    0.00     566    28.5
 338   12:10   37.3    33    8.7   336     12.1   814.5    0.00     551    28.6
 338   12:20   37.5    34    9.6   327     12.7   814.4    0.00     475    28.8
 338   12:30   37.3    35    9.8   328     12.4   814.3    0.00     425    28.9
 338   12:40   37.9    35    9.6   324     12.1   814.2    0.00     516    29.0
 338   12:50   37.8    35    7.8   333     11.8   814.1    0.00     447    29.1
 338   13:00   38.3    35    7.5   327     11.4   814.0    0.00     504    29.3
 338   13:10   38.6    35    7.5   318     10.9   813.9    0.00     484    29.4
 338   13:20   39.0    35    6.9   319      9.4   813.8    0.00     466    29.4
 338   13:30   39.5    34    7.2   314      9.2   813.9    0.00     449    29.5
 338   13:40   39.7    34    6.6   310      8.9   813.8    0.00     428    29.6
 338   13:50   40.1    34    5.9   302      8.8   813.8    0.00     398    29.7
 338   14:00   40.3    35    6.6   301      8.7   814.0    0.00     370    29.8
 338   14:10   40.3    36    7.3   321     10.7   813.9    0.00     363    29.9
 338   14:20   40.1    36    8.0   326     10.5   814.0    0.00     326    30.0
 338   14:30   40.1    36    7.2   335      9.6   814.0    0.00     306    30.1
 338   14:40   40.0    36    8.7   338     12.1   814.1    0.00     279    30.1
 338   14:50   40.0    35    8.6   344     11.8   814.1    0.00     252    30.2
 338   15:00   40.0    36    7.5   339     11.0   814.1    0.00     223    30.3
 338   15:10   39.8    36    7.5   335     10.0   814.1    0.00     194    30.4
 338   15:20   39.3    38    8.6   329     10.6   814.1    0.00     166    30.4
 338   15:30   38.7    40    8.5   325     11.0   814.3    0.00     134    30.5
 338   15:40   38.2    41    9.4   324     12.3   814.3    0.00      95    30.5
 338   15:50   37.4    44    6.7   309      8.9   814.2    0.00      55    30.5
 338   16:00   35.4    48    6.3   308      8.3   814.2    0.00      16    30.6
 338   16:10   33.6    51    6.6   299      8.1   814.3    0.00       7    30.6
 338   16:20   32.6    53    7.9   281      9.7   814.3    0.00       7    30.6
 338   16:30   32.8    54    7.8   284     10.2   814.4    0.00       7    30.6
 338   16:40   32.2    55    8.1   287     10.4   814.4    0.00       3    30.6
 338   16:50   30.6    58    8.0   276      9.5   814.3    0.00       0    30.6
 338   17:00   29.4    60    9.3   273     11.5   814.3    0.00       0    30.6
 338   17:10   28.5    63    9.3   265     10.8   814.4    0.00       1    30.6
 338   17:20   29.0    63    7.8   274     10.3   814.3    0.00       1    30.6
 338   17:30   29.2    63    9.2   274     11.6   814.4    0.00       0    30.6
 338   17:40   29.5    62    8.9   274     11.2   814.3    0.00       0    30.6
 338   17:50   29.2    63    9.7   265     11.2   814.3    0.00       0    30.5
 338   18:00   29.1    63    9.2   259     11.3   814.2    0.00       0    30.5
 338   18:10   28.6    64    5.9   259      9.2   814.1    0.00       0    30.5
 338   18:20   28.3    64    1.4   131      2.9   814.2    0.00       0    30.5
 338   18:30   29.8    60    1.7   320      4.5   814.3    0.00       0    30.5
 338   18:40   28.9    62    2.7     3      4.1   814.5    0.00       0    30.4
 338   18:50   27.2    66    3.8    21      4.9   814.7    0.00       0    30.4
 338   19:00   27.8    64    2.9    24      4.4   814.8    0.00       0    30.4
 338   19:10   27.5    65    1.9    37      3.3   814.8    0.00       0    30.4
 338   19:20   25.0    68    2.8    90      3.9   814.8    0.00       0    30.4
 338   19:30   20.5    75    3.7   130      4.7   814.8    0.00       0    30.4
 338   19:40   20.4    77    4.4   167      6.4   815.0    0.00       0    30.4
 338   19:50   22.1    75    5.0   163      7.3   815.0    0.00       0    30.4
 338   20:00   20.9    75    6.1   143      7.2   815.1    0.00       0    30.3
 338   20:10   21.0    76    4.2   141      5.6   815.2    0.00       0    30.3
 338   20:20   20.4    76    4.6   120      6.1   815.1    0.00       0    30.3
 338   20:30   20.3    77    2.5   136      4.4   815.1    0.00       0    30.2
 338   20:40   18.7    77    5.7   146      9.0   815.0    0.00       0    30.2
 338   20:50   16.7    80    7.4   156     12.0   815.0    0.00       0    30.2
 338   21:00   16.6    81   11.2   145     13.9   815.0    0.00       0    30.1
 338   21:10   17.2    80   10.5   140     12.9   815.0    0.00       0    30.1
 338   21:20   18.3    79    9.0   139     11.5   815.0    0.00       0    30.0

Return to Ely, Nevada graphs page.


Western Regional Climate Center,wrcc@dri.edu